createdAt,value
2023-02-07T00:00:19.167Z,67.74
2023-02-07T00:02:51.775Z,67.92
2023-02-07T00:05:24.432Z,68.04
2023-02-07T00:07:59.550Z,68.38
2023-02-07T00:10:29.812Z,68.43
2023-02-07T00:13:00.115Z,67.74
2023-02-07T00:15:30.543Z,68.46
2023-02-07T00:18:00.651Z,67.88
2023-02-07T00:20:30.840Z,67.98
2023-02-07T00:23:01.079Z,68.66
2023-02-07T00:25:31.274Z,68.19
2023-02-07T00:28:01.640Z,68.66
2023-02-07T00:30:31.981Z,68.21
2023-02-07T00:33:04.219Z,68.38
2023-02-07T00:35:54.002Z,68.13
2023-02-07T00:38:24.159Z,68.22
2023-02-07T00:40:54.579Z,68.07
2023-02-07T00:43:29.980Z,68.28
2023-02-07T00:46:03.065Z,68.24
2023-02-07T00:48:36.457Z,68.64
2023-02-07T00:51:07.025Z,68.35
2023-02-07T00:53:37.947Z,68.61
2023-02-07T00:56:09.523Z,68.01
2023-02-07T00:58:39.680Z,68.19
2023-02-07T01:01:10.013Z,68.04
2023-02-07T01:03:40.298Z,67.90
2023-02-07T01:06:10.788Z,68.08
2023-02-07T01:08:40.890Z,68.27
2023-02-07T01:11:14.395Z,68.78
2023-02-07T01:13:45.195Z,68.42
2023-02-07T01:16:20.339Z,68.79
2023-02-07T01:18:50.741Z,68.69
2023-02-07T01:21:24.061Z,68.34
2023-02-07T01:23:57.245Z,68.20
2023-02-07T01:26:27.907Z,68.74
2023-02-07T01:28:58.101Z,68.03
2023-02-07T01:31:28.749Z,68.33
2023-02-07T01:34:00.504Z,68.84
2023-02-07T01:36:30.756Z,68.75
2023-02-07T01:39:01.392Z,68.41
2023-02-07T01:41:31.704Z,68.45
2023-02-07T01:44:08.142Z,67.88
2023-02-07T01:46:38.366Z,68.68
2023-02-07T01:49:17.581Z,68.54
2023-02-07T01:51:58.438Z,68.38
2023-02-07T01:54:38.443Z,68.60
2023-02-07T01:57:14.691Z,68.70
2023-02-07T01:59:46.367Z,68.35
2023-02-07T02:02:19.450Z,68.30
2023-02-07T02:04:55.252Z,68.47
2023-02-07T02:07:33.625Z,68.40
2023-02-07T02:10:13.388Z,69.21
2023-02-07T02:13:39.389Z,69.16
2023-02-07T02:16:54.847Z,68.87
2023-02-07T02:19:28.026Z,68.72
2023-02-07T02:22:03.991Z,68.62
2023-02-07T02:24:51.891Z,68.36
2023-02-07T02:27:50.016Z,68.99
2023-02-07T02:30:26.028Z,68.58
2023-02-07T02:33:01.956Z,68.51
2023-02-07T02:35:49.787Z,69.05
2023-02-07T02:38:39.211Z,68.89
2023-02-07T02:41:18.586Z,68.44
2023-02-07T02:44:04.452Z,68.84
2023-02-07T02:46:37.468Z,68.60
2023-02-07T02:49:10.788Z,69.11
2023-02-07T02:51:40.996Z,68.33
2023-02-07T02:54:46.697Z,68.57
2023-02-07T02:57:54.023Z,68.50
2023-02-07T03:00:49.021Z,69.04
2023-02-07T03:03:44.852Z,68.82
2023-02-07T03:06:37.808Z,68.89
2023-02-07T03:09:23.195Z,68.88
2023-02-07T03:12:16.286Z,68.71
2023-02-07T03:15:09.327Z,68.50
2023-02-07T03:17:49.800Z,68.81
2023-02-07T03:20:26.839Z,68.45
2023-02-07T03:23:00.462Z,68.96
2023-02-07T03:25:31.715Z,69.06
2023-02-07T03:28:04.643Z,68.42
2023-02-07T03:30:37.458Z,68.28
2023-02-07T03:33:12.101Z,69.01
2023-02-07T03:36:00.944Z,69.02
2023-02-07T03:38:31.395Z,68.52
2023-02-07T03:41:11.136Z,68.50
2023-02-07T03:43:51.597Z,68.56
2023-02-07T03:46:36.941Z,69.02
2023-02-07T03:49:12.029Z,68.86
2023-02-07T03:51:42.174Z,68.52
2023-02-07T03:54:12.598Z,69.04
2023-02-07T03:56:42.648Z,69.18
2023-02-07T03:59:12.856Z,68.61
2023-02-07T04:01:43.515Z,68.66
2023-02-07T04:04:13.779Z,68.31
2023-02-07T04:06:43.846Z,68.88
2023-02-07T04:09:14.404Z,69.26
2023-02-07T04:11:44.684Z,68.54
2023-02-07T04:14:14.856Z,68.74
2023-02-07T04:16:45.011Z,68.78
2023-02-07T04:19:16.035Z,68.61
2023-02-07T04:21:46.245Z,68.46
2023-02-07T04:24:16.505Z,69.07
2023-02-07T04:26:46.802Z,68.71
2023-02-07T04:29:16.923Z,68.87
2023-02-07T04:31:47.112Z,68.92
2023-02-07T04:34:17.225Z,68.62
2023-02-07T04:36:47.408Z,68.98
2023-02-07T04:39:17.573Z,68.47
2023-02-07T04:41:47.845Z,69.01
2023-02-07T04:44:18.096Z,68.89
2023-02-07T04:46:48.262Z,68.53
2023-02-07T04:49:18.476Z,68.58
2023-02-07T04:51:48.596Z,68.79
2023-02-07T04:54:18.753Z,68.38
2023-02-07T04:56:48.939Z,68.61
2023-02-07T04:59:19.090Z,67.97
2023-02-07T05:01:49.228Z,69.21
2023-02-07T05:04:19.496Z,68.77
2023-02-07T05:06:49.631Z,68.65
2023-02-07T05:09:20.133Z,68.36
2023-02-07T05:11:50.272Z,68.83
2023-02-07T05:14:20.443Z,68.53
2023-02-07T05:16:50.734Z,68.35
2023-02-07T05:19:20.971Z,68.37
2023-02-07T05:21:51.090Z,68.85
2023-02-07T05:24:21.421Z,68.28
2023-02-07T05:26:51.557Z,69.03
2023-02-07T05:29:21.780Z,68.65
2023-02-07T05:32:10.335Z,68.62
2023-02-07T05:34:40.504Z,68.58
2023-02-07T05:37:10.735Z,68.88
2023-02-07T05:39:40.930Z,69.14
2023-02-07T05:42:11.099Z,67.87
2023-02-07T05:44:41.270Z,68.47
2023-02-07T05:47:11.789Z,68.50
2023-02-07T05:49:43.205Z,68.51
2023-02-07T05:52:13.481Z,68.35
2023-02-07T05:54:43.683Z,68.43
2023-02-07T05:57:13.828Z,68.71
2023-02-07T05:59:43.984Z,68.34
2023-02-07T06:02:14.160Z,68.70
2023-02-07T06:04:44.354Z,68.80
2023-02-07T06:07:14.602Z,68.70
2023-02-07T06:09:44.854Z,68.29
2023-02-07T06:12:14.984Z,69.17
2023-02-07T06:14:45.103Z,68.07
2023-02-07T06:17:15.271Z,67.66
2023-02-07T06:19:45.591Z,68.27
2023-02-07T06:22:16.421Z,68.40
2023-02-07T06:24:49.185Z,68.72
2023-02-07T06:27:28.496Z,68.18
2023-02-07T06:30:08.323Z,67.83
2023-02-07T06:32:41.512Z,68.09
2023-02-07T06:35:23.873Z,67.95
2023-02-07T06:37:55.183Z,68.03
2023-02-07T06:40:25.405Z,67.98
2023-02-07T06:42:55.767Z,67.85
2023-02-07T06:45:25.912Z,67.81
2023-02-07T06:47:56.143Z,68.19
2023-02-07T06:50:26.713Z,68.19
2023-02-07T06:53:02.217Z,67.94
2023-02-07T06:55:36.247Z,68.34
2023-02-07T06:58:07.667Z,67.54
2023-02-07T07:00:38.189Z,67.67
2023-02-07T07:03:16.949Z,67.93
2023-02-07T07:05:47.173Z,68.00
2023-02-07T07:08:18.892Z,67.90
2023-02-07T07:10:48.972Z,67.87
2023-02-07T07:13:19.341Z,68.00
2023-02-07T07:15:49.685Z,67.88
2023-02-07T07:18:19.926Z,68.01
2023-02-07T07:20:56.585Z,68.07
2023-02-07T07:23:26.813Z,67.53
2023-02-07T07:26:02.782Z,67.43
2023-02-07T07:28:34.351Z,67.37
2023-02-07T07:31:13.740Z,67.67
2023-02-07T07:33:44.214Z,67.78
2023-02-07T07:36:15.045Z,67.42
2023-02-07T07:38:47.489Z,67.43
2023-02-07T07:41:18.074Z,66.83
2023-02-07T07:43:48.350Z,67.45
2023-02-07T07:46:18.504Z,67.40
2023-02-07T07:48:48.657Z,66.65
2023-02-07T07:51:18.888Z,67.14
2023-02-07T07:53:48.985Z,67.07
2023-02-07T07:56:19.313Z,66.30
2023-02-07T07:58:49.706Z,66.89
2023-02-07T08:01:19.918Z,67.00
2023-02-07T08:03:50.280Z,66.45
2023-02-07T08:06:20.720Z,67.18
2023-02-07T08:08:51.291Z,66.57
2023-02-07T08:11:21.438Z,66.41
2023-02-07T08:13:51.710Z,66.07
2023-02-07T08:16:21.946Z,66.23
2023-02-07T08:18:52.565Z,65.94
2023-02-07T08:21:23.358Z,66.16
2023-02-07T08:23:57.403Z,66.03
2023-02-07T08:26:27.533Z,65.73
2023-02-07T08:28:57.854Z,65.92
2023-02-07T08:31:28.272Z,65.88
2023-02-07T08:34:06.021Z,66.15
2023-02-07T08:36:38.815Z,65.77
2023-02-07T08:39:11.503Z,65.78
2023-02-07T08:41:43.066Z,65.32
2023-02-07T08:44:13.349Z,65.66
2023-02-07T08:46:43.481Z,65.74
2023-02-07T08:49:13.672Z,65.71
2023-02-07T08:51:44.293Z,66.09
2023-02-07T08:54:14.717Z,66.00
2023-02-07T08:56:44.941Z,66.21
2023-02-07T08:59:15.125Z,65.88
2023-02-07T09:01:45.277Z,65.95
2023-02-07T09:04:15.545Z,65.59
2023-02-07T09:06:46.807Z,65.84
2023-02-07T09:09:20.059Z,65.21
2023-02-07T09:11:50.284Z,65.32
2023-02-07T09:14:20.531Z,64.83
2023-02-07T09:16:50.883Z,65.29
2023-02-07T09:19:21.020Z,65.04
2023-02-07T09:21:51.256Z,64.84
2023-02-07T09:24:21.603Z,65.42
2023-02-07T09:26:51.815Z,65.54
2023-02-07T09:29:22.387Z,65.19
2023-02-07T09:31:52.951Z,65.25
2023-02-07T09:34:24.131Z,65.00
2023-02-07T09:36:54.603Z,64.73
2023-02-07T09:39:24.874Z,64.83
2023-02-07T09:41:57.944Z,65.01
2023-02-07T09:44:49.533Z,64.69
2023-02-07T09:47:25.180Z,64.09
2023-02-07T09:50:12.881Z,64.41
2023-02-07T09:52:52.388Z,64.65
2023-02-07T09:55:32.963Z,64.85
2023-02-07T09:58:10.415Z,64.63
2023-02-07T10:00:43.188Z,64.30
2023-02-07T10:03:16.512Z,64.25
2023-02-07T10:05:52.246Z,64.50
2023-02-07T10:08:26.418Z,64.33
2023-02-07T10:11:15.946Z,64.44
2023-02-07T10:14:13.413Z,62.84
2023-02-07T10:16:53.050Z,64.08
2023-02-07T10:19:54.590Z,64.11
2023-02-07T10:22:34.074Z,63.62
2023-02-07T10:25:04.111Z,63.56
2023-02-07T10:27:41.426Z,62.73
2023-02-07T10:30:18.856Z,63.28
2023-02-07T10:32:51.859Z,63.63
2023-02-07T10:35:29.628Z,63.03
2023-02-07T10:38:02.732Z,62.87
2023-02-07T10:40:43.084Z,61.75
2023-02-07T10:43:34.285Z,61.36
2023-02-07T10:46:10.962Z,61.75
2023-02-07T10:48:41.180Z,62.04
2023-02-07T10:51:29.434Z,60.92
2023-02-07T10:54:09.951Z,62.38
2023-02-07T10:57:01.678Z,61.65
2023-02-07T10:59:38.882Z,62.30
2023-02-07T11:02:28.468Z,61.63
2023-02-07T11:05:07.059Z,62.24
2023-02-07T11:08:06.544Z,61.30
2023-02-07T11:10:41.276Z,62.22
2023-02-07T11:13:20.720Z,62.34
2023-02-07T11:16:07.419Z,61.17
2023-02-07T11:19:03.033Z,60.98
2023-02-07T11:21:44.402Z,61.48
2023-02-07T11:24:52.073Z,61.19
2023-02-07T11:27:23.794Z,62.64
2023-02-07T11:29:59.910Z,62.04
2023-02-07T11:32:30.398Z,62.66
2023-02-07T11:35:06.518Z,62.73
2023-02-07T11:37:48.847Z,61.76
2023-02-07T11:40:23.966Z,62.71
2023-02-07T11:43:12.386Z,61.98
2023-02-07T11:45:48.680Z,62.57
2023-02-07T11:48:31.521Z,61.96
2023-02-07T11:51:04.538Z,62.49
2023-02-07T11:53:41.806Z,62.59
2023-02-07T11:56:24.200Z,62.01
2023-02-07T11:58:55.920Z,62.69
2023-02-07T12:01:30.985Z,62.58
2023-02-07T12:04:09.109Z,62.93
2023-02-07T12:06:48.129Z,62.42
2023-02-07T12:09:29.178Z,62.90
2023-02-07T12:12:03.343Z,63.36
2023-02-07T12:14:38.946Z,62.97
2023-02-07T12:17:17.948Z,62.70
2023-02-07T12:19:56.452Z,62.85
2023-02-07T12:22:35.195Z,63.54
2023-02-07T12:25:14.272Z,63.11
2023-02-07T12:27:47.918Z,63.39
2023-02-07T12:30:40.235Z,63.31
2023-02-07T12:33:19.594Z,63.25
2023-02-07T12:36:00.257Z,62.99
2023-02-07T12:38:57.634Z,61.68
2023-02-07T12:41:30.463Z,60.84
2023-02-07T12:44:45.981Z,62.17
2023-02-07T12:47:36.898Z,63.11
2023-02-07T12:50:36.505Z,61.65
2023-02-07T12:53:31.986Z,60.60
2023-02-07T12:56:39.453Z,55.91
2023-02-07T12:59:16.572Z,55.26
2023-02-07T13:02:21.087Z,54.62
2023-02-07T13:05:11.894Z,54.95
2023-02-07T13:08:18.510Z,53.47
2023-02-07T13:11:26.488Z,53.58
2023-02-07T13:14:13.631Z,56.79
2023-02-07T13:17:01.068Z,55.17
2023-02-07T13:19:47.810Z,53.53
2023-02-07T13:22:28.941Z,52.42
2023-02-07T13:25:01.036Z,57.41
2023-02-07T13:27:32.009Z,58.23
2023-02-07T13:30:02.652Z,58.30
2023-02-07T13:32:32.822Z,58.56
2023-02-07T13:35:23.803Z,58.77
2023-02-07T13:38:18.573Z,58.41
2023-02-07T13:41:04.223Z,58.97
2023-02-07T13:43:45.522Z,59.50
2023-02-07T13:46:19.753Z,60.19
2023-02-07T13:49:01.875Z,60.25
2023-02-07T13:51:58.069Z,60.72
2023-02-07T13:54:31.131Z,61.30
2023-02-07T13:57:20.832Z,61.21
2023-02-07T14:00:13.040Z,61.15
2023-02-07T14:03:09.293Z,61.31
2023-02-07T14:05:43.594Z,61.19
2023-02-07T14:08:16.911Z,61.74
2023-02-07T14:10:52.934Z,61.60
2023-02-07T14:13:37.970Z,61.92
2023-02-07T14:16:13.316Z,61.70
2023-02-07T14:18:53.392Z,61.71
2023-02-07T14:21:29.944Z,61.42
2023-02-07T14:24:05.503Z,61.86
2023-02-07T14:26:38.336Z,61.96
2023-02-07T14:29:21.141Z,62.39
2023-02-07T14:32:02.373Z,61.83
2023-02-07T14:34:58.546Z,61.90
2023-02-07T14:37:54.087Z,61.83
2023-02-07T14:40:42.403Z,61.71
2023-02-07T14:43:12.757Z,61.25
2023-02-07T14:45:52.054Z,61.78
2023-02-07T14:48:53.841Z,61.74
2023-02-07T14:51:29.907Z,62.51
2023-02-07T14:54:06.727Z,62.46
2023-02-07T14:56:55.337Z,62.19
2023-02-07T14:59:32.437Z,62.46
2023-02-07T15:02:21.624Z,62.64
2023-02-07T15:04:52.019Z,62.19
2023-02-07T15:07:23.100Z,62.20
2023-02-07T15:09:53.503Z,62.17
2023-02-07T15:12:28.352Z,62.10
2023-02-07T15:14:58.536Z,62.43
2023-02-07T15:17:42.555Z,63.12
2023-02-07T15:20:20.611Z,63.26
2023-02-07T15:22:53.148Z,63.45
2023-02-07T15:25:25.085Z,63.08
2023-02-07T15:28:26.579Z,63.42
2023-02-07T15:31:11.640Z,63.25
2023-02-07T15:33:47.869Z,63.43
2023-02-07T15:36:38.136Z,64.08
2023-02-07T15:39:16.037Z,63.96
2023-02-07T15:41:47.853Z,64.05
2023-02-07T15:44:24.399Z,64.46
2023-02-07T15:46:57.436Z,63.85
2023-02-07T15:49:35.189Z,64.00
2023-02-07T15:52:17.168Z,63.88
2023-02-07T15:54:51.497Z,63.86
2023-02-07T15:57:28.708Z,64.19
2023-02-07T16:00:15.974Z,64.51
2023-02-07T16:02:55.859Z,64.49
2023-02-07T16:05:36.917Z,64.48
2023-02-07T16:08:52.624Z,65.31
2023-02-07T16:11:25.822Z,64.33
2023-02-07T16:14:11.975Z,65.32
2023-02-07T16:16:49.376Z,65.02
2023-02-07T16:19:31.407Z,64.69
2023-02-07T16:22:12.249Z,64.98
2023-02-07T16:24:47.315Z,64.80
2023-02-07T16:27:30.394Z,64.44
2023-02-07T16:30:02.852Z,65.49
2023-02-07T16:32:34.558Z,65.22
2023-02-07T16:35:15.869Z,65.29
2023-02-07T16:37:46.362Z,65.07
2023-02-07T16:40:17.518Z,65.12
2023-02-07T16:42:47.727Z,64.99
2023-02-07T16:45:27.041Z,65.66
2023-02-07T16:47:59.508Z,65.71
2023-02-07T16:50:31.109Z,65.34
2023-02-07T16:53:02.086Z,65.60
2023-02-07T16:55:35.624Z,65.44
2023-02-07T16:58:07.541Z,65.54
2023-02-07T17:00:40.163Z,65.20
2023-02-07T17:03:15.359Z,65.16
2023-02-07T17:05:45.567Z,65.44
2023-02-07T17:08:18.064Z,65.36
2023-02-07T17:10:53.521Z,65.66
2023-02-07T17:13:23.785Z,65.19
2023-02-07T17:15:54.451Z,65.08
2023-02-07T17:18:25.761Z,65.30
2023-02-07T17:20:56.920Z,65.67
2023-02-07T17:23:28.783Z,65.76
2023-02-07T17:25:58.948Z,65.54
2023-02-07T17:28:30.653Z,65.43
2023-02-07T17:31:01.493Z,65.70
2023-02-07T17:33:35.055Z,65.87
2023-02-07T17:36:09.148Z,65.81
2023-02-07T17:38:40.959Z,65.56
2023-02-07T17:41:17.514Z,66.20
2023-02-07T17:43:51.081Z,65.69
2023-02-07T17:46:36.322Z,66.40
2023-02-07T17:49:15.825Z,66.46
2023-02-07T17:51:47.685Z,66.50
2023-02-07T17:54:19.839Z,66.17
2023-02-07T17:56:50.700Z,65.83
2023-02-07T17:59:25.290Z,66.21
2023-02-07T18:01:57.631Z,66.42
2023-02-07T18:04:32.902Z,66.59
2023-02-07T18:07:14.712Z,66.70
2023-02-07T18:09:45.101Z,66.64
2023-02-07T18:12:16.026Z,66.78
2023-02-07T18:14:47.143Z,67.10
2023-02-07T18:17:17.502Z,66.59
2023-02-07T18:19:47.730Z,66.29
2023-02-07T18:22:18.601Z,66.23
2023-02-07T18:24:49.346Z,66.06
2023-02-07T18:27:19.825Z,66.34
2023-02-07T18:29:50.127Z,66.71
2023-02-07T18:32:20.667Z,66.58
2023-02-07T18:34:50.814Z,66.59
2023-02-07T18:37:22.078Z,66.79
2023-02-07T18:39:52.674Z,67.39
2023-02-07T18:42:24.757Z,66.97
2023-02-07T18:44:55.299Z,66.73
2023-02-07T18:47:26.001Z,66.86
2023-02-07T18:49:56.210Z,67.31
2023-02-07T18:52:26.410Z,67.21
2023-02-07T18:54:56.740Z,66.51
2023-02-07T18:57:26.917Z,66.49
2023-02-07T18:59:57.028Z,66.68
2023-02-07T19:02:27.143Z,66.99
2023-02-07T19:04:57.431Z,66.23
2023-02-07T19:07:27.903Z,66.56
2023-02-07T19:09:58.055Z,66.34
2023-02-07T19:12:28.249Z,66.92
2023-02-07T19:14:58.320Z,66.50
2023-02-07T19:17:28.578Z,66.52
2023-02-07T19:19:58.938Z,66.42
2023-02-07T19:22:35.718Z,66.87
2023-02-07T19:25:06.797Z,66.86
2023-02-07T19:27:37.432Z,66.74
2023-02-07T19:30:08.437Z,66.66
2023-02-07T19:32:38.700Z,66.44
2023-02-07T19:35:08.860Z,66.80
2023-02-07T19:37:39.152Z,66.53
2023-02-07T19:40:10.042Z,66.52
2023-02-07T19:42:40.246Z,66.57
2023-02-07T19:45:10.434Z,66.71
2023-02-07T19:47:40.974Z,66.65
2023-02-07T19:50:11.176Z,67.00
2023-02-07T19:52:41.968Z,67.10
2023-02-07T19:55:12.605Z,66.58
2023-02-07T19:57:42.863Z,66.48
2023-02-07T20:00:13.419Z,66.80
2023-02-07T20:02:43.567Z,67.29
2023-02-07T20:05:13.743Z,66.93
2023-02-07T20:07:43.856Z,66.48
2023-02-07T20:10:13.997Z,66.85
2023-02-07T20:12:44.205Z,67.28
2023-02-07T20:15:14.466Z,67.33
2023-02-07T20:17:46.336Z,66.42
2023-02-07T20:20:17.887Z,66.51
2023-02-07T20:22:47.969Z,67.06
2023-02-07T20:25:18.082Z,66.59
2023-02-07T20:27:48.262Z,66.83
2023-02-07T20:30:18.445Z,66.68
2023-02-07T20:32:48.751Z,66.75
2023-02-07T20:35:18.940Z,66.99
2023-02-07T20:37:49.530Z,66.64
2023-02-07T20:40:19.773Z,66.59
2023-02-07T20:42:50.001Z,66.75
2023-02-07T20:45:20.179Z,66.64
2023-02-07T20:47:50.342Z,66.56
2023-02-07T20:50:20.548Z,66.79
2023-02-07T20:52:51.109Z,66.63
2023-02-07T20:55:21.437Z,66.79
2023-02-07T20:57:51.655Z,66.78
2023-02-07T21:00:21.992Z,66.88
2023-02-07T21:02:52.171Z,66.87
2023-02-07T21:05:22.465Z,67.00
2023-02-07T21:07:52.629Z,67.55
2023-02-07T21:10:22.801Z,66.67
2023-02-07T21:12:52.949Z,66.58
2023-02-07T21:15:23.402Z,67.12
2023-02-07T21:17:54.021Z,66.73
2023-02-07T21:20:24.115Z,67.04
2023-02-07T21:22:54.205Z,66.71
2023-02-07T21:25:24.337Z,66.94
2023-02-07T21:27:54.543Z,66.90
2023-02-07T21:30:24.809Z,66.89
2023-02-07T21:32:55.028Z,66.86
2023-02-07T21:35:25.186Z,66.85
2023-02-07T21:37:55.392Z,66.85
2023-02-07T21:40:26.221Z,67.07
2023-02-07T21:42:56.518Z,66.83
2023-02-07T21:45:26.869Z,67.11
2023-02-07T21:47:57.043Z,67.69
2023-02-07T21:50:27.311Z,67.01
2023-02-07T21:53:02.104Z,67.35
2023-02-07T21:55:34.826Z,67.56
2023-02-07T21:58:11.778Z,67.15
2023-02-07T22:00:42.441Z,66.83
2023-02-07T22:03:14.204Z,67.12
2023-02-07T22:05:44.423Z,67.32
2023-02-07T22:08:14.569Z,67.15
2023-02-07T22:10:45.191Z,67.40
2023-02-07T22:13:15.324Z,67.22
2023-02-07T22:15:49.813Z,67.78
2023-02-07T22:18:20.228Z,67.54
2023-02-07T22:20:50.943Z,67.28
2023-02-07T22:23:21.424Z,67.37
2023-02-07T22:25:52.363Z,67.52
2023-02-07T22:28:23.846Z,67.70
2023-02-07T22:30:54.062Z,67.67
2023-02-07T22:33:24.355Z,67.27
2023-02-07T22:35:54.417Z,68.10
2023-02-07T22:38:24.572Z,67.96
2023-02-07T22:40:54.684Z,67.74
2023-02-07T22:43:24.775Z,67.69
2023-02-07T22:45:54.976Z,67.65
2023-02-07T22:48:25.350Z,67.34
2023-02-07T22:50:55.577Z,67.47
2023-02-07T22:53:27.241Z,68.02
2023-02-07T22:56:01.648Z,67.33
2023-02-07T22:58:32.206Z,68.08
2023-02-07T23:01:03.751Z,67.64
2023-02-07T23:03:35.086Z,68.23
2023-02-07T23:06:06.027Z,67.80
2023-02-07T23:08:36.195Z,67.29
2023-02-07T23:11:11.465Z,68.26
2023-02-07T23:13:42.315Z,68.00
2023-02-07T23:16:18.978Z,67.89
2023-02-07T23:18:50.999Z,68.48
2023-02-07T23:21:22.618Z,67.85
2023-02-07T23:23:53.189Z,67.97
2023-02-07T23:26:24.809Z,67.91
2023-02-07T23:28:55.439Z,68.42
2023-02-07T23:31:26.637Z,67.81
2023-02-07T23:33:56.992Z,68.32
2023-02-07T23:36:27.623Z,67.84
2023-02-07T23:38:57.896Z,67.91
2023-02-07T23:41:28.281Z,68.03
2023-02-07T23:44:00.548Z,68.25
2023-02-07T23:46:32.651Z,68.59
2023-02-07T23:49:03.161Z,68.22
2023-02-07T23:51:33.303Z,68.04
2023-02-07T23:54:04.135Z,68.22
2023-02-07T23:56:34.604Z,68.39
2023-02-07T23:59:04.871Z,68.36
